sensor_id;sensor_type;location;lat;lon;timestamp;temperature;humidity
44229;DHT22;29904;51.058;5.378;2022-09-27T00:01:14;10.60;99.90
44229;DHT22;29904;51.058;5.378;2022-09-27T00:03:40;10.70;99.90
44229;DHT22;29904;51.058;5.378;2022-09-27T00:06:16;10.60;99.90
44229;DHT22;29904;51.058;5.378;2022-09-27T00:08:43;10.60;99.90
44229;DHT22;29904;51.058;5.378;2022-09-27T00:11:20;10.60;99.90
44229;DHT22;29904;51.058;5.378;2022-09-27T00:13:47;10.60;99.90
44229;DHT22;29904;51.058;5.378;2022-09-27T00:16:13;10.60;99.90
44229;DHT22;29904;51.058;5.378;2022-09-27T00:18:38;10.60;99.90
44229;DHT22;29904;51.058;5.378;2022-09-27T00:21:06;10.60;99.90
44229;DHT22;29904;51.058;5.378;2022-09-27T00:23:34;10.50;99.90
44229;DHT22;29904;51.058;5.378;2022-09-27T00:26:00;10.50;99.90
44229;DHT22;29904;51.058;5.378;2022-09-27T00:28:26;10.50;99.90
44229;DHT22;29904;51.058;5.378;2022-09-27T00:30:52;10.40;99.90
44229;DHT22;29904;51.058;5.378;2022-09-27T00:33:19;10.40;99.90
44229;DHT22;29904;51.058;5.378;2022-09-27T00:35:44;10.50;99.90
44229;DHT22;29904;51.058;5.378;2022-09-27T00:38:10;10.60;99.90
44229;DHT22;29904;51.058;5.378;2022-09-27T00:40:37;10.50;99.90
44229;DHT22;29904;51.058;5.378;2022-09-27T00:43:18;10.50;99.90
44229;DHT22;29904;51.058;5.378;2022-09-27T00:46:01;10.40;99.90
44229;DHT22;29904;51.058;5.378;2022-09-27T00:48:30;10.40;99.90
44229;DHT22;29904;51.058;5.378;2022-09-27T00:51:00;10.40;99.90
44229;DHT22;29904;51.058;5.378;2022-09-27T00:53:32;10.40;99.90
44229;DHT22;29904;51.058;5.378;2022-09-27T00:56:02;10.40;99.90
44229;DHT22;29904;51.058;5.378;2022-09-27T00:58:32;10.30;99.90
44229;DHT22;29904;51.058;5.378;2022-09-27T01:01:03;10.30;99.90
44229;DHT22;29904;51.058;5.378;2022-09-27T01:03:38;10.30;99.90
44229;DHT22;29904;51.058;5.378;2022-09-27T01:06:08;10.20;99.90
44229;DHT22;29904;51.058;5.378;2022-09-27T01:08:34;10.30;99.90
44229;DHT22;29904;51.058;5.378;2022-09-27T01:31:15;10.20;99.90
44229;DHT22;29904;51.058;5.378;2022-09-27T01:42:40;10.10;99.90
44229;DHT22;29904;51.058;5.378;2022-09-27T01:45:18;10.10;99.90
44229;DHT22;29904;51.058;5.378;2022-09-27T01:47:55;10.00;99.90
44229;DHT22;29904;51.058;5.378;2022-09-27T01:50:37;10.00;99.90
44229;DHT22;29904;51.058;5.378;2022-09-27T01:55:42;10.00;99.90
44229;DHT22;29904;51.058;5.378;2022-09-27T02:00:39;9.90;99.90
44229;DHT22;29904;51.058;5.378;2022-09-27T02:03:17;10.00;99.90
44229;DHT22;29904;51.058;5.378;2022-09-27T02:05:49;10.00;99.90
44229;DHT22;29904;51.058;5.378;2022-09-27T02:10:54;9.90;99.90
44229;DHT22;29904;51.058;5.378;2022-09-27T02:13:26;9.90;99.90
44229;DHT22;29904;51.058;5.378;2022-09-27T02:16:22;9.90;99.90
44229;DHT22;29904;51.058;5.378;2022-09-27T02:24:47;9.90;99.90
44229;DHT22;29904;51.058;5.378;2022-09-27T02:27:19;9.90;99.90
44229;DHT22;29904;51.058;5.378;2022-09-27T02:29:54;9.90;99.90
44229;DHT22;29904;51.058;5.378;2022-09-27T02:32:23;9.80;99.90
44229;DHT22;29904;51.058;5.378;2022-09-27T02:34:49;9.80;99.90
44229;DHT22;29904;51.058;5.378;2022-09-27T02:37:16;9.80;99.90
44229;DHT22;29904;51.058;5.378;2022-09-27T02:39:44;9.80;99.90
44229;DHT22;29904;51.058;5.378;2022-09-27T02:42:10;9.80;99.90
44229;DHT22;29904;51.058;5.378;2022-09-27T02:44:36;9.80;99.90
44229;DHT22;29904;51.058;5.378;2022-09-27T02:58:20;9.80;99.90
44229;DHT22;29904;51.058;5.378;2022-09-27T03:00:55;9.80;99.90
44229;DHT22;29904;51.058;5.378;2022-09-27T03:06:15;9.80;99.90
44229;DHT22;29904;51.058;5.378;2022-09-27T03:08:43;9.80;99.90
44229;DHT22;29904;51.058;5.378;2022-09-27T03:11:09;9.80;99.90
44229;DHT22;29904;51.058;5.378;2022-09-27T03:13:34;9.80;99.90
44229;DHT22;29904;51.058;5.378;2022-09-27T03:16:04;9.80;99.90
44229;DHT22;29904;51.058;5.378;2022-09-27T03:18:32;9.80;99.90
44229;DHT22;29904;51.058;5.378;2022-09-27T03:20:58;9.80;99.90
44229;DHT22;29904;51.058;5.378;2022-09-27T03:23:24;9.80;99.90
44229;DHT22;29904;51.058;5.378;2022-09-27T03:25:49;9.90;99.90
44229;DHT22;29904;51.058;5.378;2022-09-27T03:28:16;9.90;99.90
44229;DHT22;29904;51.058;5.378;2022-09-27T03:30:44;9.90;99.90
44229;DHT22;29904;51.058;5.378;2022-09-27T03:33:12;10.00;99.90
44229;DHT22;29904;51.058;5.378;2022-09-27T03:35:38;9.90;99.90
44229;DHT22;29904;51.058;5.378;2022-09-27T03:38:04;10.00;99.90
44229;DHT22;29904;51.058;5.378;2022-09-27T03:40:34;10.00;99.90
44229;DHT22;29904;51.058;5.378;2022-09-27T03:43:00;10.00;99.90
44229;DHT22;29904;51.058;5.378;2022-09-27T03:45:26;9.90;99.90
44229;DHT22;29904;51.058;5.378;2022-09-27T03:47:54;9.90;99.90
44229;DHT22;29904;51.058;5.378;2022-09-27T03:50:20;9.90;99.90
44229;DHT22;29904;51.058;5.378;2022-09-27T03:52:46;9.90;99.90
44229;DHT22;29904;51.058;5.378;2022-09-27T03:55:12;9.90;99.90
44229;DHT22;29904;51.058;5.378;2022-09-27T03:57:38;9.80;99.90
44229;DHT22;29904;51.058;5.378;2022-09-27T04:00:05;9.80;99.90
44229;DHT22;29904;51.058;5.378;2022-09-27T04:02:31;9.80;99.90
44229;DHT22;29904;51.058;5.378;2022-09-27T04:04:57;9.80;99.90
44229;DHT22;29904;51.058;5.378;2022-09-27T04:07:23;9.80;99.90
44229;DHT22;29904;51.058;5.378;2022-09-27T04:09:49;9.70;99.90
44229;DHT22;29904;51.058;5.378;2022-09-27T04:12:14;9.80;99.90
44229;DHT22;29904;51.058;5.378;2022-09-27T04:14:40;9.80;99.90
44229;DHT22;29904;51.058;5.378;2022-09-27T04:17:06;9.70;99.90
44229;DHT22;29904;51.058;5.378;2022-09-27T04:19:32;9.70;99.90
44229;DHT22;29904;51.058;5.378;2022-09-27T04:21:57;9.70;99.90
44229;DHT22;29904;51.058;5.378;2022-09-27T04:24:23;9.70;99.90
44229;DHT22;29904;51.058;5.378;2022-09-27T04:26:49;9.70;99.90
44229;DHT22;29904;51.058;5.378;2022-09-27T04:29:17;9.70;99.90
44229;DHT22;29904;51.058;5.378;2022-09-27T04:31:43;9.60;99.90
44229;DHT22;29904;51.058;5.378;2022-09-27T04:34:09;9.60;99.90
44229;DHT22;29904;51.058;5.378;2022-09-27T04:36:37;9.60;99.90
44229;DHT22;29904;51.058;5.378;2022-09-27T04:39:06;9.60;99.90
44229;DHT22;29904;51.058;5.378;2022-09-27T04:41:32;9.60;99.90
44229;DHT22;29904;51.058;5.378;2022-09-27T04:44:00;9.60;99.90
44229;DHT22;29904;51.058;5.378;2022-09-27T04:46:27;9.60;99.90
44229;DHT22;29904;51.058;5.378;2022-09-27T04:48:57;9.60;99.90
44229;DHT22;29904;51.058;5.378;2022-09-27T04:51:26;9.50;99.90
44229;DHT22;29904;51.058;5.378;2022-09-27T04:53:52;9.50;99.90
44229;DHT22;29904;51.058;5.378;2022-09-27T04:56:17;9.50;99.90
44229;DHT22;29904;51.058;5.378;2022-09-27T04:58:43;9.50;99.90
44229;DHT22;29904;51.058;5.378;2022-09-27T05:01:09;9.40;99.90
44229;DHT22;29904;51.058;5.378;2022-09-27T05:03:35;9.40;99.90
44229;DHT22;29904;51.058;5.378;2022-09-27T05:06:00;9.30;99.90
44229;DHT22;29904;51.058;5.378;2022-09-27T05:08:29;9.30;99.90
44229;DHT22;29904;51.058;5.378;2022-09-27T05:10:55;9.30;99.90
44229;DHT22;29904;51.058;5.378;2022-09-27T05:13:21;9.30;99.90
44229;DHT22;29904;51.058;5.378;2022-09-27T05:15:47;9.30;99.90
44229;DHT22;29904;51.058;5.378;2022-09-27T05:18:13;9.20;99.90
44229;DHT22;29904;51.058;5.378;2022-09-27T05:20:38;9.30;99.90
44229;DHT22;29904;51.058;5.378;2022-09-27T05:23:05;9.30;99.90
44229;DHT22;29904;51.058;5.378;2022-09-27T05:25:31;9.30;99.90
44229;DHT22;29904;51.058;5.378;2022-09-27T05:27:57;9.30;99.90
44229;DHT22;29904;51.058;5.378;2022-09-27T05:30:24;9.30;99.90
44229;DHT22;29904;51.058;5.378;2022-09-27T05:32:50;9.30;99.90
44229;DHT22;29904;51.058;5.378;2022-09-27T05:35:17;9.30;99.90
44229;DHT22;29904;51.058;5.378;2022-09-27T05:37:50;9.20;99.90
44229;DHT22;29904;51.058;5.378;2022-09-27T05:40:16;9.30;99.90
44229;DHT22;29904;51.058;5.378;2022-09-27T05:42:41;9.30;99.90
44229;DHT22;29904;51.058;5.378;2022-09-27T05:45:07;9.30;99.90
44229;DHT22;29904;51.058;5.378;2022-09-27T05:47:35;9.30;99.90
44229;DHT22;29904;51.058;5.378;2022-09-27T05:50:03;9.30;99.90
44229;DHT22;29904;51.058;5.378;2022-09-27T05:52:30;9.20;99.90
44229;DHT22;29904;51.058;5.378;2022-09-27T05:54:55;9.30;99.90
44229;DHT22;29904;51.058;5.378;2022-09-27T05:57:22;9.30;99.90
44229;DHT22;29904;51.058;5.378;2022-09-27T05:59:48;9.30;99.90
44229;DHT22;29904;51.058;5.378;2022-09-27T06:02:14;9.30;99.90
44229;DHT22;29904;51.058;5.378;2022-09-27T06:04:39;9.30;99.90
44229;DHT22;29904;51.058;5.378;2022-09-27T06:07:05;9.30;99.90
44229;DHT22;29904;51.058;5.378;2022-09-27T06:09:31;9.40;99.90
44229;DHT22;29904;51.058;5.378;2022-09-27T06:11:57;9.50;99.90
44229;DHT22;29904;51.058;5.378;2022-09-27T06:14:25;9.50;99.90
44229;DHT22;29904;51.058;5.378;2022-09-27T06:16:52;9.50;99.90
44229;DHT22;29904;51.058;5.378;2022-09-27T06:19:20;9.50;99.90
44229;DHT22;29904;51.058;5.378;2022-09-27T06:21:48;9.50;99.90
44229;DHT22;29904;51.058;5.378;2022-09-27T06:24:15;9.60;99.90
44229;DHT22;29904;51.058;5.378;2022-09-27T06:26:40;9.60;99.90
44229;DHT22;29904;51.058;5.378;2022-09-27T06:29:07;9.70;99.90
44229;DHT22;29904;51.058;5.378;2022-09-27T06:31:32;9.80;99.90
44229;DHT22;29904;51.058;5.378;2022-09-27T06:33:58;9.70;99.90
44229;DHT22;29904;51.058;5.378;2022-09-27T06:36:25;9.80;99.90
44229;DHT22;29904;51.058;5.378;2022-09-27T06:38:53;9.90;99.90
44229;DHT22;29904;51.058;5.378;2022-09-27T06:41:21;9.90;99.90
44229;DHT22;29904;51.058;5.378;2022-09-27T06:43:47;10.00;99.90
44229;DHT22;29904;51.058;5.378;2022-09-27T06:46:13;10.10;99.90
44229;DHT22;29904;51.058;5.378;2022-09-27T06:48:40;10.10;99.90
44229;DHT22;29904;51.058;5.378;2022-09-27T06:51:07;10.10;99.90
44229;DHT22;29904;51.058;5.378;2022-09-27T06:53:32;10.20;99.90
44229;DHT22;29904;51.058;5.378;2022-09-27T06:56:00;10.20;99.90
44229;DHT22;29904;51.058;5.378;2022-09-27T06:58:29;10.20;99.90
44229;DHT22;29904;51.058;5.378;2022-09-27T07:01:14;10.20;99.90
44229;DHT22;29904;51.058;5.378;2022-09-27T07:03:39;10.20;99.90
44229;DHT22;29904;51.058;5.378;2022-09-27T07:06:18;10.20;99.90
44229;DHT22;29904;51.058;5.378;2022-09-27T07:08:53;10.20;99.90
44229;DHT22;29904;51.058;5.378;2022-09-27T07:11:19;10.20;99.90
44229;DHT22;29904;51.058;5.378;2022-09-27T07:13:47;10.20;99.90
44229;DHT22;29904;51.058;5.378;2022-09-27T07:16:13;10.20;99.90
44229;DHT22;29904;51.058;5.378;2022-09-27T07:18:40;10.20;99.90
44229;DHT22;29904;51.058;5.378;2022-09-27T07:21:06;10.20;99.90
44229;DHT22;29904;51.058;5.378;2022-09-27T07:23:33;10.30;99.90
44229;DHT22;29904;51.058;5.378;2022-09-27T07:26:03;10.30;99.90
44229;DHT22;29904;51.058;5.378;2022-09-27T07:28:31;10.40;99.90
44229;DHT22;29904;51.058;5.378;2022-09-27T07:30:57;10.50;99.90
44229;DHT22;29904;51.058;5.378;2022-09-27T07:33:23;10.50;99.90
44229;DHT22;29904;51.058;5.378;2022-09-27T07:35:49;10.60;99.90
44229;DHT22;29904;51.058;5.378;2022-09-27T07:38:14;10.70;99.90
44229;DHT22;29904;51.058;5.378;2022-09-27T07:40:41;10.70;99.90
44229;DHT22;29904;51.058;5.378;2022-09-27T07:43:09;10.80;99.90
44229;DHT22;29904;51.058;5.378;2022-09-27T07:45:35;10.90;99.90
44229;DHT22;29904;51.058;5.378;2022-09-27T07:48:06;10.90;99.90
44229;DHT22;29904;51.058;5.378;2022-09-27T07:50:33;10.90;99.90
44229;DHT22;29904;51.058;5.378;2022-09-27T07:52:59;10.90;99.90
44229;DHT22;29904;51.058;5.378;2022-09-27T07:55:25;11.00;99.90
44229;DHT22;29904;51.058;5.378;2022-09-27T07:57:50;11.00;99.90
44229;DHT22;29904;51.058;5.378;2022-09-27T08:00:18;11.00;99.90
44229;DHT22;29904;51.058;5.378;2022-09-27T08:02:44;11.00;99.90
44229;DHT22;29904;51.058;5.378;2022-09-27T08:05:11;11.00;99.90
44229;DHT22;29904;51.058;5.378;2022-09-27T08:07:39;11.10;99.90
44229;DHT22;29904;51.058;5.378;2022-09-27T08:10:08;11.10;99.90
44229;DHT22;29904;51.058;5.378;2022-09-27T08:12:35;11.00;99.90
44229;DHT22;29904;51.058;5.378;2022-09-27T08:15:03;11.00;99.90
44229;DHT22;29904;51.058;5.378;2022-09-27T08:17:30;11.00;99.90
44229;DHT22;29904;51.058;5.378;2022-09-27T08:19:56;11.00;99.90
44229;DHT22;29904;51.058;5.378;2022-09-27T08:22:23;11.00;99.90
44229;DHT22;29904;51.058;5.378;2022-09-27T08:24:49;11.00;99.90
44229;DHT22;29904;51.058;5.378;2022-09-27T08:27:15;11.00;99.90
44229;DHT22;29904;51.058;5.378;2022-09-27T08:29:43;11.00;99.90
44229;DHT22;29904;51.058;5.378;2022-09-27T08:32:10;11.00;99.90
44229;DHT22;29904;51.058;5.378;2022-09-27T08:34:37;11.00;99.90
44229;DHT22;29904;51.058;5.378;2022-09-27T08:37:04;11.00;99.90
44229;DHT22;29904;51.058;5.378;2022-09-27T08:39:30;11.00;99.90
44229;DHT22;29904;51.058;5.378;2022-09-27T08:42:14;11.10;99.90
44229;DHT22;29904;51.058;5.378;2022-09-27T08:44:54;11.20;99.90
44229;DHT22;29904;51.058;5.378;2022-09-27T08:47:36;11.30;99.90
44229;DHT22;29904;51.058;5.378;2022-09-27T08:52:41;11.60;99.90
44229;DHT22;29904;51.058;5.378;2022-09-27T08:55:29;11.60;99.90
44229;DHT22;29904;51.058;5.378;2022-09-27T08:57:57;11.60;99.90
44229;DHT22;29904;51.058;5.378;2022-09-27T09:00:24;11.70;99.90
44229;DHT22;29904;51.058;5.378;2022-09-27T09:02:50;11.80;99.90
44229;DHT22;29904;51.058;5.378;2022-09-27T09:05:32;11.80;99.90
44229;DHT22;29904;51.058;5.378;2022-09-27T09:10:59;11.80;99.90
44229;DHT22;29904;51.058;5.378;2022-09-27T09:16:40;12.10;99.90
44229;DHT22;29904;51.058;5.378;2022-09-27T09:24:42;12.20;99.90
44229;DHT22;29904;51.058;5.378;2022-09-27T09:30:17;12.40;99.90
44229;DHT22;29904;51.058;5.378;2022-09-27T09:33:07;12.30;99.90
44229;DHT22;29904;51.058;5.378;2022-09-27T09:38:13;12.10;99.90
44229;DHT22;29904;51.058;5.378;2022-09-27T09:43:54;12.30;99.90
44229;DHT22;29904;51.058;5.378;2022-09-27T09:46:42;12.30;99.90
44229;DHT22;29904;51.058;5.378;2022-09-27T09:49:50;12.30;99.90
44229;DHT22;29904;51.058;5.378;2022-09-27T09:52:18;12.40;99.90
44229;DHT22;29904;51.058;5.378;2022-09-27T09:54:52;12.40;99.90
44229;DHT22;29904;51.058;5.378;2022-09-27T10:00:28;12.20;99.90
44229;DHT22;29904;51.058;5.378;2022-09-27T10:02:56;12.00;99.90
44229;DHT22;29904;51.058;5.378;2022-09-27T10:05:24;11.80;99.90
44229;DHT22;29904;51.058;5.378;2022-09-27T10:07:52;11.70;99.90
44229;DHT22;29904;51.058;5.378;2022-09-27T10:10:19;11.60;99.90
44229;DHT22;29904;51.058;5.378;2022-09-27T10:12:46;11.70;99.90
44229;DHT22;29904;51.058;5.378;2022-09-27T10:15:29;11.70;99.90
44229;DHT22;29904;51.058;5.378;2022-09-27T10:17:57;11.70;99.90
44229;DHT22;29904;51.058;5.378;2022-09-27T10:20:38;11.80;99.90
44229;DHT22;29904;51.058;5.378;2022-09-27T10:23:14;11.80;99.90
44229;DHT22;29904;51.058;5.378;2022-09-27T10:25:58;11.90;99.90
44229;DHT22;29904;51.058;5.378;2022-09-27T10:31:10;11.80;99.90
44229;DHT22;29904;51.058;5.378;2022-09-27T10:34:00;11.80;99.90
44229;DHT22;29904;51.058;5.378;2022-09-27T10:36:28;11.90;99.90
44229;DHT22;29904;51.058;5.378;2022-09-27T10:38:57;12.00;99.90
44229;DHT22;29904;51.058;5.378;2022-09-27T10:41:30;12.00;99.90
44229;DHT22;29904;51.058;5.378;2022-09-27T10:43:57;12.10;99.90
44229;DHT22;29904;51.058;5.378;2022-09-27T10:46:45;12.20;99.90
44229;DHT22;29904;51.058;5.378;2022-09-27T10:49:21;12.20;99.90
44229;DHT22;29904;51.058;5.378;2022-09-27T10:51:52;12.20;99.90
44229;DHT22;29904;51.058;5.378;2022-09-27T10:54:22;12.10;99.90
44229;DHT22;29904;51.058;5.378;2022-09-27T10:59:45;11.60;99.90
44229;DHT22;29904;51.058;5.378;2022-09-27T11:05:04;10.80;99.90
44229;DHT22;29904;51.058;5.378;2022-09-27T11:07:30;10.50;99.90
44229;DHT22;29904;51.058;5.378;2022-09-27T11:09:57;10.40;99.90
44229;DHT22;29904;51.058;5.378;2022-09-27T11:12:29;10.20;99.90
44229;DHT22;29904;51.058;5.378;2022-09-27T11:15:02;10.10;99.90
44229;DHT22;29904;51.058;5.378;2022-09-27T11:17:51;9.90;99.90
44229;DHT22;29904;51.058;5.378;2022-09-27T11:20:38;9.90;99.90
44229;DHT22;29904;51.058;5.378;2022-09-27T11:23:36;9.80;99.90
44229;DHT22;29904;51.058;5.378;2022-09-27T11:32:18;10.00;99.90
44229;DHT22;29904;51.058;5.378;2022-09-27T11:34:56;10.10;99.90
44229;DHT22;29904;51.058;5.378;2022-09-27T11:37:48;10.20;99.90
44229;DHT22;29904;51.058;5.378;2022-09-27T11:40:43;10.20;99.90
44229;DHT22;29904;51.058;5.378;2022-09-27T11:43:42;10.30;99.90
44229;DHT22;29904;51.058;5.378;2022-09-27T12:03:03;11.00;99.90
44229;DHT22;29904;51.058;5.378;2022-09-27T12:08:32;11.30;99.90
44229;DHT22;29904;51.058;5.378;2022-09-27T12:16:42;11.80;99.90
44229;DHT22;29904;51.058;5.378;2022-09-27T12:19:16;11.90;99.90
44229;DHT22;29904;51.058;5.378;2022-09-27T12:21:43;11.90;99.90
44229;DHT22;29904;51.058;5.378;2022-09-27T12:24:18;12.00;99.90
44229;DHT22;29904;51.058;5.378;2022-09-27T12:26:47;12.00;99.90
44229;DHT22;29904;51.058;5.378;2022-09-27T12:29:40;12.20;99.90
44229;DHT22;29904;51.058;5.378;2022-09-27T12:35:20;12.60;99.90
44229;DHT22;29904;51.058;5.378;2022-09-27T12:37:51;12.60;99.90
44229;DHT22;29904;51.058;5.378;2022-09-27T12:40:33;12.70;99.90
44229;DHT22;29904;51.058;5.378;2022-09-27T12:43:22;12.60;99.90
44229;DHT22;29904;51.058;5.378;2022-09-27T12:46:18;12.50;99.90
44229;DHT22;29904;51.058;5.378;2022-09-27T12:51:15;12.30;99.90
44229;DHT22;29904;51.058;5.378;2022-09-27T12:57:05;12.50;99.90
44229;DHT22;29904;51.058;5.378;2022-09-27T12:59:39;12.60;99.90
44229;DHT22;29904;51.058;5.378;2022-09-27T13:05:26;12.80;99.90
44229;DHT22;29904;51.058;5.378;2022-09-27T13:13:23;12.50;99.90
44229;DHT22;29904;51.058;5.378;2022-09-27T13:15:56;12.40;99.90
44229;DHT22;29904;51.058;5.378;2022-09-27T13:21:07;12.00;99.90
44229;DHT22;29904;51.058;5.378;2022-09-27T13:33:50;11.10;99.90
44229;DHT22;29904;51.058;5.378;2022-09-27T13:44:42;10.20;99.90
44229;DHT22;29904;51.058;5.378;2022-09-27T13:47:33;10.20;99.90
44229;DHT22;29904;51.058;5.378;2022-09-27T13:52:44;10.80;99.90
44229;DHT22;29904;51.058;5.378;2022-09-27T13:58:35;11.40;99.90
44229;DHT22;29904;51.058;5.378;2022-09-27T14:01:14;11.70;99.90
44229;DHT22;29904;51.058;5.378;2022-09-27T14:03:43;11.80;99.90
44229;DHT22;29904;51.058;5.378;2022-09-27T14:06:14;11.90;99.90
44229;DHT22;29904;51.058;5.378;2022-09-27T14:08:51;11.90;99.90
44229;DHT22;29904;51.058;5.378;2022-09-27T14:11:39;12.00;99.90
44229;DHT22;29904;51.058;5.378;2022-09-27T14:14:11;12.10;99.90
44229;DHT22;29904;51.058;5.378;2022-09-27T14:16:41;12.20;99.90
44229;DHT22;29904;51.058;5.378;2022-09-27T14:19:21;12.30;99.90
44229;DHT22;29904;51.058;5.378;2022-09-27T14:21:49;12.30;99.90
44229;DHT22;29904;51.058;5.378;2022-09-27T14:27:29;12.30;99.90
44229;DHT22;29904;51.058;5.378;2022-09-27T14:29:58;12.30;99.90
44229;DHT22;29904;51.058;5.378;2022-09-27T14:32:28;12.30;99.90
44229;DHT22;29904;51.058;5.378;2022-09-27T14:35:14;12.30;99.90
44229;DHT22;29904;51.058;5.378;2022-09-27T14:38:01;12.20;99.90
44229;DHT22;29904;51.058;5.378;2022-09-27T14:40:29;12.10;99.90
44229;DHT22;29904;51.058;5.378;2022-09-27T14:42:58;12.10;99.90
44229;DHT22;29904;51.058;5.378;2022-09-27T14:45:37;12.10;99.90
44229;DHT22;29904;51.058;5.378;2022-09-27T14:50:57;12.10;99.90
44229;DHT22;29904;51.058;5.378;2022-09-27T14:53:27;12.10;99.90
44229;DHT22;29904;51.058;5.378;2022-09-27T14:55:56;12.10;99.90
44229;DHT22;29904;51.058;5.378;2022-09-27T14:58:22;12.10;99.90
44229;DHT22;29904;51.058;5.378;2022-09-27T15:00:49;12.10;99.90
44229;DHT22;29904;51.058;5.378;2022-09-27T15:03:24;12.10;99.90
44229;DHT22;29904;51.058;5.378;2022-09-27T15:05:51;12.10;99.90
44229;DHT22;29904;51.058;5.378;2022-09-27T15:08:18;11.90;99.90
44229;DHT22;29904;51.058;5.378;2022-09-27T15:10:44;11.80;99.90
44229;DHT22;29904;51.058;5.378;2022-09-27T15:13:14;11.70;99.90
44229;DHT22;29904;51.058;5.378;2022-09-27T15:15:40;11.50;99.90
44229;DHT22;29904;51.058;5.378;2022-09-27T15:21:14;11.40;99.90
44229;DHT22;29904;51.058;5.378;2022-09-27T15:23:42;11.40;99.90
44229;DHT22;29904;51.058;5.378;2022-09-27T15:26:21;11.40;99.90
44229;DHT22;29904;51.058;5.378;2022-09-27T15:28:50;11.40;99.90
44229;DHT22;29904;51.058;5.378;2022-09-27T15:31:29;11.40;99.90
44229;DHT22;29904;51.058;5.378;2022-09-27T15:33:56;11.50;99.90
44229;DHT22;29904;51.058;5.378;2022-09-27T15:36:49;11.50;99.90
44229;DHT22;29904;51.058;5.378;2022-09-27T15:39:35;11.50;99.90
44229;DHT22;29904;51.058;5.378;2022-09-27T15:44:43;11.40;99.90
44229;DHT22;29904;51.058;5.378;2022-09-27T15:52:46;11.30;99.90
44229;DHT22;29904;51.058;5.378;2022-09-27T15:55:19;11.30;99.90
44229;DHT22;29904;51.058;5.378;2022-09-27T15:58:13;11.20;99.90
44229;DHT22;29904;51.058;5.378;2022-09-27T16:00:54;11.20;99.90
44229;DHT22;29904;51.058;5.378;2022-09-27T16:03:20;11.20;99.90
44229;DHT22;29904;51.058;5.378;2022-09-27T16:05:46;11.20;99.90
44229;DHT22;29904;51.058;5.378;2022-09-27T16:08:13;11.20;99.90
44229;DHT22;29904;51.058;5.378;2022-09-27T16:10:44;11.20;99.90
44229;DHT22;29904;51.058;5.378;2022-09-27T16:13:10;11.20;99.90
44229;DHT22;29904;51.058;5.378;2022-09-27T16:15:37;11.20;99.90
44229;DHT22;29904;51.058;5.378;2022-09-27T16:18:03;11.20;99.90
44229;DHT22;29904;51.058;5.378;2022-09-27T16:20:29;11.20;99.90
44229;DHT22;29904;51.058;5.378;2022-09-27T16:22:56;11.20;99.90
44229;DHT22;29904;51.058;5.378;2022-09-27T16:25:23;11.30;99.90
44229;DHT22;29904;51.058;5.378;2022-09-27T16:27:49;11.30;99.90
44229;DHT22;29904;51.058;5.378;2022-09-27T16:30:15;11.40;99.90
44229;DHT22;29904;51.058;5.378;2022-09-27T16:32:46;11.30;99.90
44229;DHT22;29904;51.058;5.378;2022-09-27T16:35:14;11.40;99.90
44229;DHT22;29904;51.058;5.378;2022-09-27T16:37:40;11.30;99.90
44229;DHT22;29904;51.058;5.378;2022-09-27T16:40:07;11.30;99.90
44229;DHT22;29904;51.058;5.378;2022-09-27T16:42:34;11.20;99.90
44229;DHT22;29904;51.058;5.378;2022-09-27T16:45:03;11.20;99.90
44229;DHT22;29904;51.058;5.378;2022-09-27T16:47:29;11.20;99.90
44229;DHT22;29904;51.058;5.378;2022-09-27T16:49:55;11.10;99.90
44229;DHT22;29904;51.058;5.378;2022-09-27T16:52:40;11.10;99.90
44229;DHT22;29904;51.058;5.378;2022-09-27T16:55:07;11.10;99.90
44229;DHT22;29904;51.058;5.378;2022-09-27T16:57:33;11.00;99.90
44229;DHT22;29904;51.058;5.378;2022-09-27T17:00:04;11.00;99.90
44229;DHT22;29904;51.058;5.378;2022-09-27T17:02:30;10.90;99.90
44229;DHT22;29904;51.058;5.378;2022-09-27T17:04:57;10.80;99.90
44229;DHT22;29904;51.058;5.378;2022-09-27T17:07:24;10.70;99.90
44229;DHT22;29904;51.058;5.378;2022-09-27T17:09:50;10.70;99.90
44229;DHT22;29904;51.058;5.378;2022-09-27T17:12:16;10.60;99.90
44229;DHT22;29904;51.058;5.378;2022-09-27T17:14:43;10.50;99.90
44229;DHT22;29904;51.058;5.378;2022-09-27T17:17:11;10.50;99.90
44229;DHT22;29904;51.058;5.378;2022-09-27T17:19:36;10.60;99.90
44229;DHT22;29904;51.058;5.378;2022-09-27T17:22:05;10.50;99.90
44229;DHT22;29904;51.058;5.378;2022-09-27T17:24:32;10.60;99.90
44229;DHT22;29904;51.058;5.378;2022-09-27T17:26:57;10.50;99.90
44229;DHT22;29904;51.058;5.378;2022-09-27T17:29:23;10.60;99.90
44229;DHT22;29904;51.058;5.378;2022-09-27T17:31:49;10.60;99.90
44229;DHT22;29904;51.058;5.378;2022-09-27T17:34:15;10.60;99.90
44229;DHT22;29904;51.058;5.378;2022-09-27T17:36:43;10.50;99.90
44229;DHT22;29904;51.058;5.378;2022-09-27T17:39:17;10.50;99.90
44229;DHT22;29904;51.058;5.378;2022-09-27T17:41:43;10.50;99.90
44229;DHT22;29904;51.058;5.378;2022-09-27T17:44:11;10.50;99.90
44229;DHT22;29904;51.058;5.378;2022-09-27T17:46:40;10.50;99.90
44229;DHT22;29904;51.058;5.378;2022-09-27T17:49:06;10.50;99.90
44229;DHT22;29904;51.058;5.378;2022-09-27T17:51:52;10.40;99.90
44229;DHT22;29904;51.058;5.378;2022-09-27T17:54:20;10.50;99.90
44229;DHT22;29904;51.058;5.378;2022-09-27T17:56:47;10.50;99.90
44229;DHT22;29904;51.058;5.378;2022-09-27T17:59:15;10.50;99.90
44229;DHT22;29904;51.058;5.378;2022-09-27T18:01:42;10.50;99.90
44229;DHT22;29904;51.058;5.378;2022-09-27T18:04:10;10.50;99.90
44229;DHT22;29904;51.058;5.378;2022-09-27T18:06:44;10.50;99.90
44229;DHT22;29904;51.058;5.378;2022-09-27T18:09:12;10.50;99.90
44229;DHT22;29904;51.058;5.378;2022-09-27T18:11:39;10.50;99.90
44229;DHT22;29904;51.058;5.378;2022-09-27T18:14:06;10.50;99.90
44229;DHT22;29904;51.058;5.378;2022-09-27T18:16:34;10.50;99.90
44229;DHT22;29904;51.058;5.378;2022-09-27T18:19:04;10.60;99.90
44229;DHT22;29904;51.058;5.378;2022-09-27T18:21:32;10.60;99.90
44229;DHT22;29904;51.058;5.378;2022-09-27T18:23:59;10.60;99.90
44229;DHT22;29904;51.058;5.378;2022-09-27T18:26:27;10.60;99.90
44229;DHT22;29904;51.058;5.378;2022-09-27T18:28:59;10.60;99.90
44229;DHT22;29904;51.058;5.378;2022-09-27T18:31:24;10.70;99.90
44229;DHT22;29904;51.058;5.378;2022-09-27T18:33:50;10.60;99.90
44229;DHT22;29904;51.058;5.378;2022-09-27T18:36:22;10.60;99.90
44229;DHT22;29904;51.058;5.378;2022-09-27T18:39:13;10.70;99.90
44229;DHT22;29904;51.058;5.378;2022-09-27T18:41:43;10.70;99.90
44229;DHT22;29904;51.058;5.378;2022-09-27T18:44:13;10.70;99.90
44229;DHT22;29904;51.058;5.378;2022-09-27T18:46:40;10.70;99.90
44229;DHT22;29904;51.058;5.378;2022-09-27T18:49:07;10.70;99.90
44229;DHT22;29904;51.058;5.378;2022-09-27T18:51:35;10.70;99.90
44229;DHT22;29904;51.058;5.378;2022-09-27T18:54:04;10.70;99.90
44229;DHT22;29904;51.058;5.378;2022-09-27T18:56:32;10.70;99.90
44229;DHT22;29904;51.058;5.378;2022-09-27T18:59:04;10.70;99.90